createdAt,value
2022-12-04T00:01:09.802Z,20.11
2022-12-04T00:03:37.760Z,20.08
2022-12-04T00:06:15.511Z,20.03
2022-12-04T00:08:43.454Z,20.10
2022-12-04T00:11:12.339Z,19.94
2022-12-04T00:13:40.432Z,20.44
2022-12-04T00:16:08.879Z,19.71
2022-12-04T00:18:36.207Z,19.70
2022-12-04T00:21:04.764Z,20.23
2022-12-04T00:23:32.586Z,20.27
2022-12-04T00:26:04.377Z,20.05
2022-12-04T00:28:31.783Z,20.02
2022-12-04T00:30:59.097Z,19.60
2022-12-04T00:33:26.491Z,20.06
2022-12-04T00:35:57.605Z,19.83
2022-12-04T00:38:26.509Z,20.31
2022-12-04T00:40:53.803Z,19.61
2022-12-04T00:43:21.880Z,19.83
2022-12-04T00:45:49.533Z,20.49
2022-12-04T00:48:16.746Z,19.96
2022-12-04T00:50:43.956Z,20.07
2022-12-04T00:53:11.412Z,20.17
2022-12-04T00:55:39.336Z,20.08
2022-12-04T00:58:07.893Z,20.22
2022-12-04T01:00:36.196Z,20.26
2022-12-04T01:03:04.958Z,20.21
2022-12-04T01:05:32.226Z,20.23
2022-12-04T01:07:59.570Z,20.29
2022-12-04T01:10:26.847Z,20.35
2022-12-04T01:12:54.368Z,20.02
2022-12-04T01:15:21.632Z,19.74
2022-12-04T01:17:49.248Z,20.02
2022-12-04T01:20:16.760Z,20.18
2022-12-04T01:22:44.125Z,19.98
2022-12-04T01:25:11.381Z,20.09
2022-12-04T01:27:38.842Z,19.12
2022-12-04T01:30:06.320Z,19.65
2022-12-04T01:32:33.574Z,19.99
2022-12-04T01:35:00.777Z,19.79
2022-12-04T01:37:30.271Z,20.16
2022-12-04T01:39:57.830Z,20.33
2022-12-04T01:42:25.365Z,20.09
2022-12-04T01:45:11.310Z,20.13
2022-12-04T01:47:38.559Z,19.66
2022-12-04T01:50:06.022Z,20.04
2022-12-04T01:52:33.382Z,20.45
2022-12-04T01:55:01.448Z,19.75
2022-12-04T01:57:31.428Z,20.47
2022-12-04T02:00:10.071Z,19.62
2022-12-04T02:02:39.416Z,20.48
2022-12-04T02:05:09.393Z,19.77
2022-12-04T02:07:38.020Z,19.42
2022-12-04T02:10:06.407Z,20.30
2022-12-04T02:12:57.157Z,20.11
2022-12-04T02:15:30.984Z,20.45
2022-12-04T02:18:10.478Z,20.06
2022-12-04T02:20:43.724Z,20.31
2022-12-04T02:23:28.813Z,20.05
2022-12-04T02:26:22.016Z,19.11
2022-12-04T02:28:53.178Z,20.13
2022-12-04T02:31:22.828Z,20.36
2022-12-04T02:34:02.333Z,20.00
2022-12-04T02:36:35.144Z,20.26
2022-12-04T02:39:07.110Z,20.01
2022-12-04T02:41:43.681Z,20.49
2022-12-04T02:44:14.289Z,20.14
2022-12-04T02:46:47.695Z,20.54
2022-12-04T02:49:17.688Z,20.45
2022-12-04T02:51:46.715Z,20.21
2022-12-04T02:54:21.234Z,20.01
2022-12-04T02:56:50.555Z,20.38
2022-12-04T02:59:24.879Z,20.36
2022-12-04T03:01:56.349Z,20.32
2022-12-04T03:04:26.356Z,20.08
2022-12-04T03:07:02.291Z,20.60
2022-12-04T03:09:35.768Z,20.69
2022-12-04T03:12:20.748Z,20.21
2022-12-04T03:15:14.429Z,20.04
2022-12-04T03:17:52.596Z,20.31
2022-12-04T03:20:21.124Z,20.37
2022-12-04T03:22:51.547Z,20.53
2022-12-04T03:25:18.872Z,20.45
2022-12-04T03:27:54.506Z,20.60
2022-12-04T03:30:22.551Z,19.85
2022-12-04T03:32:52.121Z,20.38
2022-12-04T03:35:23.688Z,20.37
2022-12-04T03:37:50.971Z,20.09
2022-12-04T03:40:41.623Z,19.97
2022-12-04T03:43:14.352Z,20.15
2022-12-04T03:45:44.679Z,20.13
2022-12-04T03:48:22.954Z,20.10
2022-12-04T03:50:56.119Z,20.27
2022-12-04T03:53:32.523Z,20.60
2022-12-04T03:56:25.880Z,20.15
2022-12-04T03:58:55.903Z,20.39
2022-12-04T04:01:25.727Z,20.45
2022-12-04T04:03:55.303Z,20.41
2022-12-04T04:06:27.049Z,20.43
2022-12-04T04:08:56.907Z,20.57
2022-12-04T04:11:30.238Z,20.61
2022-12-04T04:14:19.128Z,20.14
2022-12-04T04:17:13.216Z,20.07
2022-12-04T04:20:00.750Z,19.80
2022-12-04T04:22:49.371Z,19.93
2022-12-04T04:25:20.908Z,20.57
2022-12-04T04:27:51.989Z,20.39
2022-12-04T04:30:19.459Z,20.36
2022-12-04T04:33:06.932Z,20.93
2022-12-04T04:35:49.783Z,20.63
2022-12-04T04:38:38.683Z,19.94
2022-12-04T04:41:10.261Z,20.55
2022-12-04T04:43:44.292Z,20.10
2022-12-04T04:46:16.417Z,20.33
2022-12-04T04:48:49.065Z,19.69
2022-12-04T04:51:17.307Z,19.93
2022-12-04T04:53:52.544Z,20.55
2022-12-04T04:56:21.967Z,20.37
2022-12-04T04:58:49.576Z,20.17
2022-12-04T05:01:19.391Z,19.80
2022-12-04T05:03:46.916Z,20.63
2022-12-04T05:06:14.359Z,20.42
2022-12-04T05:08:41.748Z,20.47
2022-12-04T05:11:11.767Z,20.51
2022-12-04T05:13:39.208Z,20.72
2022-12-04T05:16:08.466Z,20.64
2022-12-04T05:18:35.988Z,20.55
2022-12-04T05:21:10.468Z,20.52
2022-12-04T05:23:37.821Z,20.67
2022-12-04T05:26:05.388Z,20.37
2022-12-04T05:28:32.740Z,20.48
2022-12-04T05:31:01.210Z,20.11
2022-12-04T05:33:29.140Z,20.16
2022-12-04T05:35:59.826Z,20.25
2022-12-04T05:38:27.286Z,20.43
2022-12-04T05:40:54.544Z,19.95
2022-12-04T05:43:22.181Z,20.48
2022-12-04T05:45:49.403Z,20.59
2022-12-04T05:48:16.698Z,20.43
2022-12-04T05:50:43.983Z,20.66
2022-12-04T05:53:11.554Z,20.54
2022-12-04T05:55:38.812Z,20.53
2022-12-04T05:58:06.113Z,20.29
2022-12-04T06:00:33.320Z,20.77
2022-12-04T06:03:00.789Z,20.24
2022-12-04T06:05:28.075Z,20.26
2022-12-04T06:07:55.425Z,20.39
2022-12-04T06:10:22.730Z,20.13
2022-12-04T06:12:50.129Z,20.30
2022-12-04T06:15:17.445Z,20.28
2022-12-04T06:17:44.775Z,20.33
2022-12-04T06:20:12.293Z,20.40
2022-12-04T06:22:39.657Z,19.68
2022-12-04T06:25:07.241Z,20.26
2022-12-04T06:27:34.894Z,19.80
2022-12-04T06:30:02.485Z,20.20
2022-12-04T06:32:30.474Z,20.13
2022-12-04T06:34:57.708Z,20.24
2022-12-04T06:37:25.272Z,20.62
2022-12-04T06:39:52.827Z,19.58
2022-12-04T06:42:20.381Z,19.86
2022-12-04T06:44:47.636Z,20.38
2022-12-04T06:47:14.994Z,20.30
2022-12-04T06:49:42.392Z,20.78
2022-12-04T06:52:09.812Z,20.37
2022-12-04T06:54:37.002Z,20.09
2022-12-04T06:57:04.396Z,20.04
2022-12-04T06:59:32.710Z,20.43
2022-12-04T07:02:00.169Z,20.46
2022-12-04T07:04:27.537Z,20.38
2022-12-04T07:06:54.789Z,20.10
2022-12-04T07:09:22.046Z,20.46
2022-12-04T07:11:49.328Z,20.19
2022-12-04T07:14:16.716Z,20.41
2022-12-04T07:16:44.227Z,20.61
2022-12-04T07:19:13.007Z,20.94
2022-12-04T07:21:41.214Z,20.48
2022-12-04T07:24:08.641Z,20.76
2022-12-04T07:26:35.996Z,20.60
2022-12-04T07:29:03.205Z,20.70
2022-12-04T07:31:30.713Z,21.23
2022-12-04T07:33:58.751Z,20.17
2022-12-04T07:36:26.651Z,20.97
2022-12-04T07:38:54.984Z,21.10
2022-12-04T07:41:22.360Z,20.08
2022-12-04T07:43:49.763Z,19.97
2022-12-04T07:46:18.951Z,20.97
2022-12-04T07:48:46.490Z,20.73
2022-12-04T07:51:17.983Z,20.30
2022-12-04T07:53:45.604Z,20.01
2022-12-04T07:56:13.346Z,20.47
2022-12-04T07:58:40.947Z,20.61
2022-12-04T08:01:09.924Z,20.86
2022-12-04T08:03:39.839Z,20.58
2022-12-04T08:06:11.296Z,20.42
2022-12-04T08:08:38.602Z,20.74
2022-12-04T08:11:07.254Z,20.57
2022-12-04T08:13:34.828Z,20.32
2022-12-04T08:16:03.023Z,20.48
2022-12-04T08:18:30.323Z,20.20
2022-12-04T08:21:04.676Z,20.69
2022-12-04T08:23:32.258Z,20.29
2022-12-04T08:26:00.530Z,20.65
2022-12-04T08:28:28.176Z,21.05
2022-12-04T08:30:55.490Z,20.53
2022-12-04T08:33:22.894Z,20.53
2022-12-04T08:35:50.242Z,20.79
2022-12-04T08:38:17.758Z,20.81
2022-12-04T08:40:44.954Z,20.98
2022-12-04T08:43:12.300Z,20.87
2022-12-04T08:45:39.512Z,21.20
2022-12-04T08:48:06.789Z,20.28
2022-12-04T08:50:34.075Z,20.63
2022-12-04T08:53:01.289Z,20.89
2022-12-04T08:55:28.611Z,20.96
2022-12-04T08:57:55.886Z,21.67
2022-12-04T09:00:23.181Z,21.52
2022-12-04T09:02:50.439Z,20.88
2022-12-04T09:05:17.834Z,20.37
2022-12-04T09:07:45.145Z,21.16
2022-12-04T09:10:12.659Z,21.06
2022-12-04T09:12:40.081Z,20.95
2022-12-04T09:15:07.754Z,20.52
2022-12-04T09:17:36.436Z,20.53
2022-12-04T09:20:04.786Z,20.58
2022-12-04T09:22:57.817Z,20.53
2022-12-04T09:25:21.132Z,20.87
2022-12-04T09:27:48.507Z,20.39
2022-12-04T09:30:15.786Z,20.53
2022-12-04T09:32:43.111Z,20.44
2022-12-04T09:35:10.530Z,21.13
2022-12-04T09:37:38.647Z,20.83
2022-12-04T09:40:06.996Z,21.39
2022-12-04T09:42:53.939Z,20.82
2022-12-04T09:45:23.140Z,21.45
2022-12-04T09:47:52.258Z,21.52
2022-12-04T09:50:19.626Z,21.04
2022-12-04T09:53:02.416Z,21.11
2022-12-04T09:55:49.671Z,20.83
2022-12-04T09:58:22.427Z,20.58
2022-12-04T10:00:51.639Z,20.95
2022-12-04T10:03:20.159Z,20.75
2022-12-04T10:05:56.684Z,20.45
2022-12-04T10:08:34.696Z,20.51
2022-12-04T10:11:20.299Z,21.03
2022-12-04T10:13:56.928Z,20.77
2022-12-04T10:16:27.348Z,21.00
2022-12-04T10:19:07.038Z,21.86
2022-12-04T10:21:52.535Z,20.81
2022-12-04T10:24:27.629Z,20.22
2022-12-04T10:26:56.835Z,21.78
2022-12-04T10:29:34.996Z,21.86
2022-12-04T10:32:17.750Z,21.49
2022-12-04T10:34:46.174Z,21.02
2022-12-04T10:37:14.919Z,21.21
2022-12-04T10:39:45.030Z,21.22
2022-12-04T10:42:15.459Z,21.12
2022-12-04T10:44:42.834Z,21.16
2022-12-04T10:47:11.807Z,20.42
2022-12-04T10:49:39.736Z,20.85
2022-12-04T10:52:07.417Z,21.30
2022-12-04T10:54:34.705Z,21.03
2022-12-04T10:57:03.155Z,22.03
2022-12-04T10:59:30.719Z,21.20
2022-12-04T11:02:07.029Z,20.66
2022-12-04T11:04:35.399Z,21.06
2022-12-04T11:07:23.475Z,21.39
2022-12-04T11:09:55.107Z,21.53
2022-12-04T11:12:23.335Z,21.39
2022-12-04T11:15:00.500Z,20.78
2022-12-04T11:17:27.942Z,20.95
2022-12-04T11:20:13.807Z,21.42
2022-12-04T11:22:49.533Z,20.68
2022-12-04T11:25:19.821Z,21.55
2022-12-04T11:27:48.840Z,21.84
2022-12-04T11:30:19.506Z,22.31
2022-12-04T11:32:46.976Z,21.86
2022-12-04T11:35:20.959Z,22.85
2022-12-04T11:37:54.613Z,21.56
2022-12-04T11:40:22.761Z,21.30
2022-12-04T11:43:19.602Z,20.60
2022-12-04T11:45:57.598Z,21.23
2022-12-04T11:48:25.315Z,21.14
2022-12-04T11:50:52.701Z,21.76
2022-12-04T11:53:23.516Z,21.35
2022-12-04T11:56:09.335Z,20.81
2022-12-04T11:58:55.382Z,20.49
2022-12-04T12:01:25.492Z,21.35
2022-12-04T12:04:11.425Z,21.15
2022-12-04T12:06:40.422Z,21.14
2022-12-04T12:09:22.692Z,20.57
2022-12-04T12:11:56.926Z,20.80
2022-12-04T12:14:30.608Z,21.10
2022-12-04T12:17:04.181Z,21.19
2022-12-04T12:19:43.560Z,21.27
2022-12-04T12:22:21.851Z,21.13
2022-12-04T12:24:51.307Z,21.14
2022-12-04T12:27:30.970Z,21.21
2022-12-04T12:30:03.499Z,21.13
2022-12-04T12:32:52.353Z,20.81
2022-12-04T12:35:36.183Z,20.69
2022-12-04T12:38:06.848Z,21.03
2022-12-04T12:40:37.349Z,21.26
2022-12-04T12:43:12.363Z,20.61
2022-12-04T12:45:53.917Z,21.08
2022-12-04T12:48:27.558Z,21.01
2022-12-04T12:53:51.336Z,21.05
2022-12-04T12:56:20.093Z,20.85
2022-12-04T12:58:51.419Z,21.26
2022-12-04T13:01:20.009Z,20.91
2022-12-04T13:04:06.172Z,21.05
2022-12-04T13:06:37.961Z,20.06
2022-12-04T13:09:08.047Z,20.83
2022-12-04T13:11:37.186Z,20.49
2022-12-04T13:14:04.672Z,20.38
2022-12-04T13:16:38.233Z,19.82
2022-12-04T13:19:06.048Z,20.35
2022-12-04T13:21:40.487Z,20.46
2022-12-04T13:24:37.527Z,19.96
2022-12-04T13:27:07.690Z,20.38
2022-12-04T13:29:35.174Z,19.94
2022-12-04T13:32:05.430Z,19.97
2022-12-04T13:34:35.804Z,20.51
2022-12-04T13:37:05.956Z,20.60
2022-12-04T13:39:51.738Z,20.50
2022-12-04T13:42:24.686Z,20.21
2022-12-04T13:44:53.867Z,19.95
2022-12-04T13:47:29.485Z,20.22
2022-12-04T13:50:15.361Z,20.08
2022-12-04T13:52:42.985Z,20.07
2022-12-04T13:55:22.522Z,20.15
2022-12-04T13:57:54.331Z,20.12
2022-12-04T14:00:35.319Z,20.38
2022-12-04T14:03:25.948Z,19.70
2022-12-04T14:05:53.626Z,20.11
2022-12-04T14:08:25.384Z,19.85
2022-12-04T14:11:01.240Z,20.27
2022-12-04T14:13:31.164Z,20.17
2022-12-04T14:16:06.496Z,20.37
2022-12-04T14:18:33.906Z,20.11
2022-12-04T14:21:04.815Z,19.92
2022-12-04T14:23:37.802Z,19.49
2022-12-04T14:26:05.557Z,19.91
2022-12-04T14:28:36.112Z,19.97
2022-12-04T14:31:09.257Z,20.79
2022-12-04T14:33:39.540Z,20.07
2022-12-04T14:36:27.440Z,20.51
2022-12-04T14:39:13.601Z,20.44
2022-12-04T14:41:41.203Z,20.26
2022-12-04T14:44:22.018Z,19.81
2022-12-04T14:46:51.891Z,20.36
2022-12-04T14:49:30.670Z,20.37
2022-12-04T14:52:05.944Z,20.47
2022-12-04T14:54:40.975Z,20.18
2022-12-04T14:57:20.417Z,20.43
2022-12-04T14:59:48.911Z,19.66
2022-12-04T15:02:17.906Z,19.47
2022-12-04T15:04:46.827Z,20.04
2022-12-04T15:07:20.300Z,19.59
2022-12-04T15:10:09.989Z,19.81
2022-12-04T15:12:53.698Z,20.08
2022-12-04T15:15:22.256Z,20.17
2022-12-04T15:18:03.408Z,19.49
2022-12-04T15:20:39.448Z,20.31
2022-12-04T15:23:06.918Z,20.75
2022-12-04T15:25:40.837Z,19.56
2022-12-04T15:28:12.044Z,19.87
2022-12-04T15:30:41.438Z,20.18
2022-12-04T15:33:14.157Z,20.09
2022-12-04T15:35:48.521Z,20.19
2022-12-04T15:38:16.352Z,20.51
2022-12-04T15:40:54.528Z,20.72
2022-12-04T15:43:27.837Z,19.98
2022-12-04T15:45:55.260Z,20.67
2022-12-04T15:48:26.028Z,21.13
2022-12-04T15:51:04.303Z,20.41
2022-12-04T15:53:33.426Z,19.95
2022-12-04T15:56:05.542Z,20.23
2022-12-04T15:58:37.996Z,20.08
2022-12-04T16:01:07.352Z,20.80
2022-12-04T16:03:39.595Z,21.03
2022-12-04T16:06:18.860Z,21.00
2022-12-04T16:08:47.996Z,21.32
2022-12-04T16:11:18.470Z,20.60
2022-12-04T16:13:46.713Z,21.14
2022-12-04T16:16:15.644Z,20.92
2022-12-04T16:18:43.518Z,21.51
2022-12-04T16:21:15.309Z,20.78
2022-12-04T16:23:42.753Z,21.12
2022-12-04T16:26:13.609Z,21.71
2022-12-04T16:28:42.171Z,21.56
2022-12-04T16:31:11.157Z,21.21
2022-12-04T16:33:38.573Z,21.61
2022-12-04T16:36:06.377Z,22.26
2022-12-04T16:38:33.833Z,21.55
2022-12-04T16:41:01.197Z,21.69
2022-12-04T16:43:28.555Z,21.92
2022-12-04T16:45:57.190Z,21.31
2022-12-04T16:48:24.564Z,21.77
2022-12-04T16:50:52.075Z,21.50
2022-12-04T16:53:20.708Z,21.26
2022-12-04T16:55:49.593Z,21.34
2022-12-04T16:58:17.491Z,21.15
2022-12-04T17:00:46.212Z,20.73
2022-12-04T17:03:17.875Z,21.03
2022-12-04T17:05:45.438Z,21.05
2022-12-04T17:08:12.764Z,21.94
2022-12-04T17:10:40.379Z,21.22
2022-12-04T17:13:07.565Z,21.29
2022-12-04T17:15:34.909Z,21.84
2022-12-04T17:18:05.969Z,22.00
2022-12-04T17:20:40.186Z,20.90
2022-12-04T17:23:07.633Z,20.87
2022-12-04T17:25:34.971Z,20.86
2022-12-04T17:28:02.605Z,21.12
2022-12-04T17:30:35.652Z,20.75
2022-12-04T17:33:04.130Z,20.84
2022-12-04T17:35:31.457Z,21.22
2022-12-04T17:38:05.451Z,21.96
2022-12-04T17:40:33.599Z,21.57
2022-12-04T17:43:00.776Z,22.18
2022-12-04T17:45:28.662Z,21.92
2022-12-04T17:47:55.985Z,21.69
2022-12-04T17:50:23.329Z,22.62
2022-12-04T17:52:50.507Z,22.41
2022-12-04T17:55:18.111Z,22.53
2022-12-04T17:57:45.405Z,22.75
2022-12-04T18:00:12.854Z,22.13
2022-12-04T18:02:41.644Z,22.15
2022-12-04T18:05:09.344Z,21.99
2022-12-04T18:07:36.597Z,22.05
2022-12-04T18:10:04.764Z,21.44
2022-12-04T18:12:32.120Z,22.18
2022-12-04T18:14:59.522Z,22.19
2022-12-04T18:17:27.151Z,21.95
2022-12-04T18:19:58.668Z,22.07
2022-12-04T18:22:28.692Z,21.45
2022-12-04T18:24:55.946Z,22.15
2022-12-04T18:27:23.227Z,21.57
2022-12-04T18:29:50.604Z,22.10
2022-12-04T18:32:18.009Z,22.18
2022-12-04T18:34:45.321Z,21.69
2022-12-04T18:37:12.592Z,21.67
2022-12-04T18:39:39.771Z,21.91
2022-12-04T18:42:07.959Z,22.41
2022-12-04T18:44:35.275Z,21.80
2022-12-04T18:47:02.531Z,22.42
2022-12-04T18:49:29.835Z,22.05
2022-12-04T18:51:59.004Z,21.75
2022-12-04T18:54:26.373Z,22.28
2022-12-04T18:56:53.719Z,21.56
2022-12-04T18:59:22.714Z,21.73
2022-12-04T19:01:50.560Z,21.57
2022-12-04T19:04:19.547Z,21.52
2022-12-04T19:06:50.648Z,21.92
2022-12-04T19:09:19.667Z,21.79
2022-12-04T19:11:46.930Z,22.74
2022-12-04T19:14:22.275Z,21.81
2022-12-04T19:16:51.115Z,21.74
2022-12-04T19:19:18.874Z,22.09
2022-12-04T19:21:46.067Z,21.96
2022-12-04T19:24:14.137Z,21.59
2022-12-04T19:26:42.761Z,21.32
2022-12-04T19:29:12.985Z,22.12
2022-12-04T19:31:40.377Z,22.05
2022-12-04T19:34:08.096Z,22.26
2022-12-04T19:36:35.379Z,22.29
2022-12-04T19:39:04.778Z,22.06
2022-12-04T19:41:34.808Z,21.99
2022-12-04T19:44:11.027Z,22.40
2022-12-04T19:46:49.655Z,22.08
2022-12-04T19:49:16.863Z,21.44
2022-12-04T19:51:44.264Z,22.06
2022-12-04T19:54:12.733Z,22.02
2022-12-04T19:56:40.082Z,22.68
2022-12-04T19:59:07.908Z,21.74
2022-12-04T20:01:35.849Z,21.96
2022-12-04T20:04:05.202Z,22.80
2022-12-04T20:06:43.128Z,22.58
2022-12-04T20:09:14.658Z,22.34
2022-12-04T20:11:42.078Z,22.57
2022-12-04T20:14:10.336Z,22.61
2022-12-04T20:16:38.141Z,22.59
2022-12-04T20:19:06.827Z,21.91
2022-12-04T20:21:34.604Z,22.29
2022-12-04T20:24:04.082Z,21.84
2022-12-04T20:26:32.864Z,22.56
2022-12-04T20:29:00.811Z,21.52
2022-12-04T20:31:29.564Z,21.57
2022-12-04T20:33:57.761Z,22.23
2022-12-04T20:36:26.646Z,21.31
2022-12-04T20:38:55.468Z,22.10
2022-12-04T20:41:22.899Z,22.56
2022-12-04T20:43:50.208Z,22.01
2022-12-04T20:46:20.523Z,21.25
2022-12-04T20:48:49.284Z,22.00
2022-12-04T20:51:17.497Z,21.84
2022-12-04T20:53:45.426Z,21.77
2022-12-04T20:56:12.999Z,22.01
2022-12-04T20:58:40.623Z,21.97
2022-12-04T21:01:15.006Z,22.02
2022-12-04T21:03:43.070Z,21.88
2022-12-04T21:06:14.763Z,21.47
2022-12-04T21:08:56.619Z,21.90
2022-12-04T21:11:25.220Z,22.33
2022-12-04T21:14:11.651Z,22.28
2022-12-04T21:16:39.321Z,21.51
2022-12-04T21:19:07.326Z,21.63
2022-12-04T21:21:36.129Z,21.74
2022-12-04T21:24:04.219Z,21.87
2022-12-04T21:26:31.581Z,22.73
2022-12-04T21:28:58.872Z,21.79
2022-12-04T21:31:28.965Z,22.26
2022-12-04T21:33:57.075Z,21.79
2022-12-04T21:36:25.005Z,22.84
2022-12-04T21:38:52.858Z,22.51
2022-12-04T21:41:38.701Z,22.95
2022-12-04T21:44:06.677Z,21.87
2022-12-04T21:46:34.142Z,22.30
2022-12-04T21:49:01.539Z,21.66
2022-12-04T21:51:55.623Z,21.71
2022-12-04T21:54:16.152Z,21.84
2022-12-04T21:56:43.460Z,22.79
2022-12-04T21:59:11.210Z,21.68
2022-12-04T22:01:38.456Z,21.34
2022-12-04T22:04:05.984Z,21.99
2022-12-04T22:06:36.264Z,22.52
2022-12-04T22:09:06.147Z,21.91
2022-12-04T22:11:33.761Z,21.52
2022-12-04T22:14:01.029Z,21.32
2022-12-04T22:16:30.995Z,21.56
2022-12-04T22:18:59.251Z,21.60
2022-12-04T22:21:26.930Z,21.54
2022-12-04T22:23:57.972Z,22.45
2022-12-04T22:26:26.072Z,22.64
2022-12-04T22:28:53.544Z,22.41
2022-12-04T22:31:22.195Z,22.07
2022-12-04T22:33:51.854Z,22.21
2022-12-04T22:36:20.473Z,21.31
2022-12-04T22:39:08.200Z,21.45
2022-12-04T22:41:35.551Z,21.81
2022-12-04T22:44:02.784Z,21.70
2022-12-04T22:46:30.110Z,21.86
2022-12-04T22:48:58.488Z,22.12
2022-12-04T22:51:27.174Z,21.83
2022-12-04T22:53:55.977Z,21.47
2022-12-04T22:56:27.470Z,22.06
2022-12-04T22:58:55.281Z,21.79
2022-12-04T23:01:24.365Z,21.03
2022-12-04T23:03:52.146Z,21.75
2022-12-04T23:06:21.378Z,21.63
2022-12-04T23:08:49.202Z,21.07
2022-12-04T23:11:18.520Z,21.51
2022-12-04T23:13:56.061Z,21.36
2022-12-04T23:16:24.446Z,21.32
2022-12-04T23:18:52.142Z,21.35
2022-12-04T23:21:20.384Z,21.25
2022-12-04T23:23:48.596Z,21.79
2022-12-04T23:26:18.230Z,21.90
2022-12-04T23:28:45.744Z,21.63
2022-12-04T23:31:13.201Z,21.62
2022-12-04T23:33:41.080Z,21.78
2022-12-04T23:36:09.302Z,21.70
2022-12-04T23:38:37.480Z,21.32
2022-12-04T23:41:08.728Z,21.31
2022-12-04T23:43:36.577Z,21.17
2022-12-04T23:46:10.428Z,21.32
2022-12-04T23:48:39.387Z,21.12
2022-12-04T23:51:07.074Z,21.77
2022-12-04T23:53:34.452Z,21.14
2022-12-04T23:56:10.074Z,21.92
2022-12-04T23:58:38.119Z,21.88
